createdAt,value
2019-01-22T00:03:16.283Z,-1.09
2019-01-22T00:05:42.045Z,-1.09
2019-01-22T00:08:07.825Z,-1.11
2019-01-22T00:10:33.599Z,-1.06
2019-01-22T00:12:59.378Z,-1.02
2019-01-22T00:15:27.027Z,-1.04
2019-01-22T00:20:26.445Z,-1.04
2019-01-22T00:22:52.221Z,-0.95
2019-01-22T00:25:17.972Z,-0.93
2019-01-22T00:27:43.743Z,-0.92
2019-01-22T00:30:53.087Z,-0.92
2019-01-22T00:33:18.865Z,-0.94
2019-01-22T00:35:44.630Z,-0.90
2019-01-22T00:38:32.417Z,-0.88
2019-01-22T00:40:58.175Z,-0.89
2019-01-22T00:43:23.974Z,-0.82
2019-01-22T00:45:49.743Z,-0.82
2019-01-22T00:48:15.499Z,-0.86
2019-01-22T00:50:43.161Z,-0.86
2019-01-22T00:53:10.048Z,-0.89
2019-01-22T00:55:36.621Z,-0.80
2019-01-22T00:58:44.098Z,-0.79
2019-01-22T01:01:09.888Z,-0.77
2019-01-22T01:03:35.646Z,-0.73
2019-01-22T01:06:01.427Z,-0.70
2019-01-22T01:08:27.192Z,-0.72
2019-01-22T01:10:52.979Z,-0.74
2019-01-22T01:13:18.747Z,-0.78
2019-01-22T01:15:46.416Z,-0.82
2019-01-22T01:18:12.207Z,-0.81
2019-01-22T01:20:37.961Z,-0.82
2019-01-22T01:23:03.715Z,-0.81
2019-01-22T01:25:29.504Z,-0.79
2019-01-22T01:27:55.256Z,-0.84
2019-01-22T01:31:02.728Z,-0.84
2019-01-22T01:33:28.501Z,-0.78
2019-01-22T01:35:54.279Z,-0.81
2019-01-22T01:38:20.035Z,-0.83
2019-01-22T01:40:47.704Z,-0.79
2019-01-22T01:43:13.473Z,-0.82
2019-01-22T01:45:39.255Z,-0.80
2019-01-22T01:48:05.029Z,-0.75
2019-01-22T01:50:30.793Z,-0.72
2019-01-22T01:53:16.474Z,-0.73
2019-01-22T01:55:42.343Z,-0.73
2019-01-22T01:58:08.094Z,-0.75
2019-01-22T02:00:33.868Z,-0.74
2019-01-22T02:02:59.622Z,-0.74
2019-01-22T02:05:25.391Z,-0.75
2019-01-22T02:07:51.156Z,-0.72
2019-01-22T02:13:30.338Z,-0.71
2019-01-22T02:16:35.886Z,-0.79
2019-01-22T02:23:10.374Z,-0.69
2019-01-22T02:26:17.817Z,-0.66
2019-01-22T02:29:23.368Z,-0.62
2019-01-22T02:32:30.814Z,-0.60
2019-01-22T02:35:36.368Z,-0.59
2019-01-22T02:38:41.914Z,-0.60
2019-01-22T02:45:03.732Z,-0.52
2019-01-22T02:48:11.181Z,-0.55
2019-01-22T02:51:18.627Z,-0.51
2019-01-22T02:57:38.141Z,-0.47
2019-01-22T03:00:45.564Z,-0.43
2019-01-22T03:04:10.997Z,-0.45
2019-01-22T03:07:16.515Z,-0.47
2019-01-22T03:10:22.050Z,-0.46
2019-01-22T03:16:41.162Z,-0.43
2019-01-22T03:19:48.600Z,-0.41
2019-01-22T03:22:56.055Z,-0.38
2019-01-22T03:29:15.334Z,-0.41
2019-01-22T03:32:22.759Z,-0.41
2019-01-22T03:35:30.225Z,-0.41
2019-01-22T03:38:55.735Z,-0.44
2019-01-22T03:42:01.684Z,-0.41
2019-01-22T03:48:20.692Z,-0.41
2019-01-22T03:51:26.233Z,-0.44
2019-01-22T03:54:31.949Z,-0.48
2019-01-22T03:57:37.493Z,-0.52
2019-01-22T04:00:23.153Z,-0.52
2019-01-22T04:02:48.893Z,-0.51
2019-01-22T04:08:28.594Z,-0.48
2019-01-22T04:11:36.038Z,-0.50
2019-01-22T04:14:01.795Z,-0.53
2019-01-22T04:16:29.467Z,-0.50
2019-01-22T04:18:55.230Z,-0.49
2019-01-22T04:22:03.713Z,-0.51
2019-01-22T04:25:09.343Z,-0.55
2019-01-22T04:28:16.775Z,-0.53
2019-01-22T04:31:22.310Z,-0.50
2019-01-22T04:34:47.730Z,-0.52
2019-01-22T04:37:55.211Z,-0.52
2019-01-22T04:41:02.603Z,-0.59
2019-01-22T04:47:35.204Z,-0.65
2019-01-22T04:51:00.617Z,-0.66
2019-01-22T04:54:09.857Z,-0.68
2019-01-22T04:57:15.495Z,-0.79
2019-01-22T05:00:22.924Z,-0.74
2019-01-22T05:03:28.460Z,-0.70
2019-01-22T05:06:33.981Z,-0.78
2019-01-22T05:09:39.516Z,-0.81
2019-01-22T05:12:46.961Z,-0.72
2019-01-22T05:22:32.797Z,-0.68
2019-01-22T05:25:38.324Z,-0.61
2019-01-22T05:28:45.775Z,-0.64
2019-01-22T05:31:53.419Z,-0.67
2019-01-22T05:34:58.964Z,-0.66
2019-01-22T05:38:06.416Z,-0.65
2019-01-22T05:41:11.930Z,-0.62
2019-01-22T05:44:17.480Z,-0.58
2019-01-22T05:47:22.991Z,-0.55
2019-01-22T05:50:30.443Z,-0.55
2019-01-22T05:56:51.796Z,-0.50
2019-01-22T05:59:59.231Z,-0.53
2019-01-22T06:03:06.703Z,-0.55
2019-01-22T06:09:41.204Z,-0.48
2019-01-22T06:12:48.635Z,-0.44
2019-01-22T06:19:07.329Z,-0.53
2019-01-22T06:22:12.869Z,-0.50
2019-01-22T06:25:18.419Z,-0.52
2019-01-22T06:31:52.920Z,-0.48
2019-01-22T06:38:12.102Z,-0.51
2019-01-22T06:41:17.654Z,-0.53
2019-01-22T06:44:25.073Z,-0.56
2019-01-22T06:47:50.495Z,-0.58
2019-01-22T06:50:57.938Z,-0.57
2019-01-22T06:54:03.496Z,-0.59
2019-01-22T06:57:08.990Z,-0.60
2019-01-22T07:00:16.425Z,-0.57
2019-01-22T07:03:23.863Z,-0.59
2019-01-22T07:06:31.292Z,-0.56
2019-01-22T07:09:38.722Z,-0.57
2019-01-22T07:16:00.176Z,-0.58
2019-01-22T07:19:07.621Z,-0.60
2019-01-22T07:22:33.037Z,-0.61
2019-01-22T07:25:38.557Z,-0.63
2019-01-22T07:28:44.148Z,-0.60
2019-01-22T07:35:05.366Z,-0.62
2019-01-22T07:38:12.807Z,-0.57
2019-01-22T07:44:47.301Z,-0.57
2019-01-22T07:47:54.741Z,-0.55
2019-01-22T07:51:02.162Z,-0.54
2019-01-22T07:54:09.594Z,-0.55
2019-01-22T07:57:17.035Z,-0.58
2019-01-22T08:00:22.568Z,-0.56
2019-01-22T08:03:30.035Z,-0.57
2019-01-22T08:10:02.639Z,-0.54
2019-01-22T08:13:28.055Z,-0.62
2019-01-22T08:16:35.479Z,-0.60
2019-01-22T08:19:41.017Z,-0.72
2019-01-22T08:26:33.490Z,-0.81
2019-01-22T08:29:40.929Z,-0.85
2019-01-22T08:32:46.462Z,-0.86
2019-01-22T08:35:53.931Z,-0.93
2019-01-22T08:39:01.353Z,-0.93
2019-01-22T08:42:06.894Z,-0.95
2019-01-22T08:45:14.335Z,-0.95
2019-01-22T08:51:48.825Z,-0.87
2019-01-22T08:54:54.361Z,-0.95
2019-01-22T09:04:40.721Z,-0.98
2019-01-22T09:07:46.260Z,-1.06
2019-01-22T09:10:51.799Z,-1.06
2019-01-22T09:13:59.229Z,-1.04
2019-01-22T09:20:36.785Z,-1.03
2019-01-22T09:23:44.213Z,-1.09
2019-01-22T09:26:51.655Z,-1.00
2019-01-22T09:29:57.176Z,-1.04
2019-01-22T09:33:04.631Z,-1.03
2019-01-22T09:36:10.188Z,-1.01
2019-01-22T09:38:35.942Z,-0.97
2019-01-22T09:41:01.713Z,-0.87
2019-01-22T09:43:27.459Z,-0.79
2019-01-22T09:45:53.226Z,-0.77
2019-01-22T09:48:18.974Z,-0.79
2019-01-22T09:51:26.424Z,-0.72
2019-01-22T09:53:52.177Z,-0.73
2019-01-22T09:56:17.939Z,-0.74
2019-01-22T09:58:43.705Z,-0.80
2019-01-22T10:01:51.152Z,-0.73
2019-01-22T10:04:16.905Z,-0.67
2019-01-22T10:06:42.664Z,-0.62
2019-01-22T10:09:50.098Z,-0.63
2019-01-22T10:12:15.857Z,-0.62
2019-01-22T10:14:41.622Z,-0.56
2019-01-22T10:17:07.388Z,-0.68
2019-01-22T10:19:33.140Z,-0.80
2019-01-22T10:21:58.905Z,-0.82
2019-01-22T10:24:24.668Z,-0.71
2019-01-22T10:26:50.433Z,-0.67
2019-01-22T10:29:36.083Z,-0.78
2019-01-22T10:32:01.844Z,-0.78
2019-01-22T10:34:27.631Z,-0.75
2019-01-22T10:36:53.393Z,-0.76
2019-01-22T10:40:00.833Z,-0.69
2019-01-22T10:42:26.597Z,-0.67
2019-01-22T10:44:52.343Z,-0.73
2019-01-22T10:47:18.117Z,-0.78
2019-01-22T10:49:43.871Z,-0.77
2019-01-22T10:52:09.632Z,-0.71
2019-01-22T10:54:35.389Z,-0.65
2019-01-22T10:57:01.157Z,-0.69
2019-01-22T10:59:26.905Z,-0.73
2019-01-22T11:01:52.670Z,-0.76
2019-01-22T11:04:18.438Z,-0.62
2019-01-22T11:06:44.190Z,-0.56
2019-01-22T11:09:09.966Z,-0.63
2019-01-22T11:11:35.724Z,-0.62
2019-01-22T11:14:01.488Z,-0.60
2019-01-22T11:16:27.244Z,-0.58
2019-01-22T11:18:53.004Z,-0.57
2019-01-22T11:21:18.771Z,-0.55
2019-01-22T11:23:44.536Z,-0.64
2019-01-22T11:26:10.293Z,-0.56
2019-01-22T11:28:36.053Z,-0.55
2019-01-22T11:31:01.817Z,-0.56
2019-01-22T11:33:27.680Z,-0.59
2019-01-22T11:35:53.444Z,-0.57
2019-01-22T11:38:19.211Z,-0.56
2019-01-22T11:40:44.951Z,-0.49
2019-01-22T11:43:10.716Z,-0.41
2019-01-22T11:45:36.469Z,-0.37
2019-01-22T11:51:15.893Z,-0.37
2019-01-22T11:53:41.662Z,-0.34
2019-01-22T11:56:07.412Z,-0.40
2019-01-22T11:58:33.184Z,-0.39
2019-01-22T12:03:46.246Z,-0.22
2019-01-22T12:06:11.996Z,-0.24
2019-01-22T12:08:37.765Z,-0.23
2019-01-22T12:11:03.513Z,-0.20
2019-01-22T12:13:29.289Z,-0.17
2019-01-22T12:15:55.043Z,-0.19
2019-01-22T12:18:20.808Z,-0.12
2019-01-22T12:20:46.661Z,-0.09
2019-01-22T12:23:12.429Z,-0.04
2019-01-22T12:25:38.176Z,-0.05
2019-01-22T12:28:45.623Z,-0.10
2019-01-22T12:31:11.373Z,0.01
2019-01-22T12:33:37.141Z,0.05
2019-01-22T12:36:02.914Z,0.04
2019-01-22T12:38:28.683Z,-0.02
2019-01-22T12:40:54.444Z,-0.13
2019-01-22T12:43:20.232Z,-0.22
2019-01-22T12:45:45.981Z,-0.16
2019-01-22T12:48:11.736Z,-0.24
2019-01-22T12:50:37.507Z,-0.26
2019-01-22T12:53:23.149Z,-0.49
2019-01-22T12:55:48.917Z,-0.49
2019-01-22T12:58:14.664Z,-0.47
2019-01-22T13:00:40.438Z,-0.49
2019-01-22T13:03:06.291Z,-0.50
2019-01-22T13:06:13.732Z,-0.51
2019-01-22T13:08:39.492Z,-0.48
2019-01-22T13:11:05.357Z,-0.48
2019-01-22T13:13:31.112Z,-0.43
2019-01-22T13:15:56.883Z,-0.47
2019-01-22T13:18:23.506Z,-0.49
2019-01-22T13:20:50.304Z,-0.53
2019-01-22T13:23:16.056Z,-0.53
2019-01-22T13:25:41.823Z,-0.44
2019-01-22T13:28:07.577Z,-0.39
2019-01-22T13:33:06.812Z,-0.38
2019-01-22T13:35:32.579Z,-0.43
2019-01-22T13:37:58.328Z,-0.40
2019-01-22T13:40:24.100Z,-0.38
2019-01-22T13:42:49.850Z,-0.44
2019-01-22T13:45:36.403Z,-0.44
2019-01-22T13:48:43.821Z,-0.41
2019-01-22T13:51:09.589Z,-0.40
2019-01-22T13:53:35.346Z,-0.41
2019-01-22T13:56:01.114Z,-0.35
2019-01-22T13:58:26.877Z,-0.44
2019-01-22T14:00:52.639Z,-0.41
2019-01-22T14:03:18.455Z,-0.42
2019-01-22T14:05:44.190Z,-0.47
2019-01-22T14:08:09.946Z,-0.49
2019-01-22T14:10:35.760Z,-0.52
2019-01-22T14:13:01.481Z,-0.52
2019-01-22T14:15:47.148Z,-0.63
2019-01-22T14:18:12.933Z,-0.58
2019-01-22T14:20:38.701Z,-0.64
2019-01-22T14:23:04.567Z,-0.70
2019-01-22T14:25:30.484Z,-0.69
2019-01-22T14:27:56.205Z,-0.68
2019-01-22T14:30:41.886Z,-0.72
2019-01-22T14:33:07.641Z,-0.75
2019-01-22T14:36:15.114Z,-0.75
2019-01-22T14:38:41.034Z,-0.80
2019-01-22T14:41:06.799Z,-0.80
2019-01-22T14:43:32.574Z,-0.86
2019-01-22T14:45:58.377Z,-0.85
2019-01-22T14:48:24.127Z,-0.88
2019-01-22T14:50:50.030Z,-0.93
2019-01-22T14:53:15.817Z,-0.95
2019-01-22T14:55:41.624Z,-0.94
2019-01-22T14:58:07.573Z,-0.93
2019-01-22T15:00:53.265Z,-0.91
2019-01-22T15:03:19.021Z,-0.91
2019-01-22T15:05:44.808Z,-1.01
2019-01-22T15:08:10.565Z,-1.02
2019-01-22T15:10:36.347Z,-0.99
2019-01-22T15:13:02.223Z,-1.01
2019-01-22T15:15:28.101Z,-1.02
2019-01-22T15:17:53.875Z,-1.04
2019-01-22T15:21:01.349Z,-1.06
2019-01-22T15:23:27.110Z,-1.07
2019-01-22T15:25:52.927Z,-1.16
2019-01-22T15:28:18.656Z,-1.22
2019-01-22T15:30:44.427Z,-1.16
2019-01-22T15:33:10.204Z,-1.19
2019-01-22T15:35:35.996Z,-1.22
2019-01-22T15:38:01.752Z,-1.23
2019-01-22T15:43:40.772Z,-1.27
2019-01-22T15:46:06.553Z,-1.28
2019-01-22T15:48:32.303Z,-1.26
2019-01-22T15:50:58.171Z,-1.25
2019-01-22T15:53:23.962Z,-1.29
2019-01-22T15:59:02.978Z,-1.29
2019-01-22T16:01:28.776Z,-1.30
2019-01-22T16:03:54.535Z,-1.30
2019-01-22T16:06:20.335Z,-1.26
2019-01-22T16:08:46.087Z,-1.27
2019-01-22T16:11:11.851Z,-1.29
2019-01-22T16:13:37.622Z,-1.30
2019-01-22T16:16:03.486Z,-1.31
2019-01-22T16:18:29.255Z,-1.31
2019-01-22T16:20:55.013Z,-1.31
2019-01-22T16:23:40.685Z,-1.35
2019-01-22T16:26:06.450Z,-1.35
2019-01-22T16:28:32.234Z,-1.40
2019-01-22T16:30:57.988Z,-1.39
2019-01-22T16:33:23.862Z,-1.36
2019-01-22T16:35:49.633Z,-1.40
2019-01-22T16:38:15.751Z,-1.39
2019-01-22T16:40:41.504Z,-1.43
2019-01-22T16:43:07.274Z,-1.44
2019-01-22T16:49:00.115Z,-1.44
2019-01-22T16:51:25.868Z,-1.46
2019-01-22T16:53:54.904Z,-1.48
2019-01-22T16:56:19.292Z,-1.47
2019-01-22T16:58:45.074Z,-1.48
2019-01-22T17:01:10.822Z,-1.50
2019-01-22T17:03:36.600Z,-1.49
2019-01-22T17:06:02.656Z,-1.49
2019-01-22T17:08:28.422Z,-1.54
2019-01-22T17:10:54.184Z,-1.54
2019-01-22T17:13:19.946Z,-1.56
2019-01-22T17:15:45.694Z,-1.57
2019-01-22T17:18:11.463Z,-1.55
2019-01-22T17:21:18.898Z,-1.62
2019-01-22T17:23:44.663Z,-1.60
2019-01-22T17:26:10.461Z,-1.61
2019-01-22T17:28:36.229Z,-1.61
2019-01-22T17:33:49.402Z,-1.71
2019-01-22T17:36:15.169Z,-1.70
2019-01-22T17:38:40.946Z,-1.71
2019-01-22T17:41:06.697Z,-1.73
2019-01-22T17:43:32.462Z,-1.75
2019-01-22T17:45:58.214Z,-1.82
2019-01-22T17:48:23.976Z,-1.78
2019-01-22T17:50:49.739Z,-1.87
2019-01-22T17:53:15.505Z,-1.87
2019-01-22T17:55:41.262Z,-1.90
2019-01-22T18:03:17.054Z,-2.00
2019-01-22T18:05:42.809Z,-2.04
2019-01-22T18:08:09.904Z,-2.12
2019-01-22T18:10:36.245Z,-2.10
2019-01-22T18:13:43.723Z,-2.15
2019-01-22T18:16:09.469Z,-2.11
2019-01-22T18:18:35.242Z,-2.18
2019-01-22T18:21:01.000Z,-2.23
2019-01-22T18:23:26.768Z,-2.27
2019-01-22T18:25:52.538Z,-2.36
2019-01-22T18:28:18.298Z,-2.36
2019-01-22T18:31:03.962Z,-2.42
2019-01-22T18:33:29.722Z,-2.42
2019-01-22T18:35:55.500Z,-2.45
2019-01-22T18:38:21.254Z,-2.46
2019-01-22T18:40:47.039Z,-2.51
2019-01-22T18:43:12.837Z,-2.50
2019-01-22T18:45:38.610Z,-2.47
2019-01-22T18:48:04.483Z,-2.48
2019-01-22T18:50:30.389Z,-2.48
2019-01-22T18:52:56.151Z,-2.46
2019-01-22T18:55:22.062Z,-2.47
2019-01-22T18:57:47.838Z,-2.52
2019-01-22T19:00:33.503Z,-2.55
2019-01-22T19:02:59.584Z,-2.56
2019-01-22T19:05:25.361Z,-2.60
2019-01-22T19:07:51.171Z,-2.62
2019-01-22T19:10:58.610Z,-2.66
2019-01-22T19:13:24.405Z,-2.70
2019-01-22T19:15:50.206Z,-2.70
2019-01-22T19:18:15.962Z,-2.75
2019-01-22T19:20:41.763Z,-2.80
2019-01-22T19:23:07.529Z,-2.81
2019-01-22T19:25:33.297Z,-2.76
2019-01-22T19:27:59.075Z,-2.81
2019-01-22T19:30:44.727Z,-2.80
2019-01-22T19:33:10.502Z,-2.82
2019-01-22T19:35:36.280Z,-2.89
2019-01-22T19:38:02.159Z,-2.91
2019-01-22T19:40:27.933Z,-2.90
2019-01-22T19:42:53.719Z,-2.97
2019-01-22T19:46:01.167Z,-2.98
2019-01-22T19:48:26.949Z,-3.01
2019-01-22T19:50:53.012Z,-3.02
2019-01-22T19:53:18.790Z,-3.03
2019-01-22T19:55:44.547Z,-3.03
2019-01-22T19:58:10.327Z,-3.07
2019-01-22T20:00:36.085Z,-3.02
2019-01-22T20:03:43.540Z,-3.05
2019-01-22T20:06:09.301Z,-3.07
2019-01-22T20:08:35.078Z,-3.07
2019-01-22T20:11:00.855Z,-3.09
2019-01-22T20:13:26.633Z,-3.07
2019-01-22T20:15:52.628Z,-3.09
2019-01-22T20:18:18.404Z,-3.15
2019-01-22T20:20:44.164Z,-3.17
2019-01-22T20:23:10.084Z,-3.17
2019-01-22T20:25:35.837Z,-3.19
2019-01-22T20:28:02.012Z,-3.18
2019-01-22T20:31:09.448Z,-3.19
2019-01-22T20:33:35.272Z,-3.21
2019-01-22T20:36:15.921Z,-3.24
2019-01-22T20:38:41.653Z,-3.70
2019-01-22T20:41:07.418Z,-3.24
2019-01-22T20:43:33.239Z,-3.27
2019-01-22T20:45:59.085Z,-3.27
2019-01-22T20:48:25.082Z,-3.26
2019-01-22T20:50:50.847Z,-3.30
2019-01-22T20:53:16.628Z,-3.31
2019-01-22T20:55:42.392Z,-3.32
2019-01-22T20:58:08.181Z,-3.33
2019-01-22T21:00:34.067Z,-3.31
2019-01-22T21:02:59.850Z,-3.34
2019-01-22T21:08:53.008Z,-3.35
2019-01-22T21:11:18.769Z,-3.44
2019-01-22T21:13:44.558Z,-3.41
2019-01-22T21:16:10.313Z,-3.42
2019-01-22T21:18:36.093Z,-3.46
2019-01-22T21:21:01.852Z,-3.48
2019-01-22T21:23:27.958Z,-3.48
2019-01-22T21:25:53.713Z,-3.52
2019-01-22T21:28:19.477Z,-3.53
2019-01-22T21:30:45.235Z,-3.56
2019-01-22T21:33:11.021Z,-3.57
2019-01-22T21:35:36.773Z,-3.60
2019-01-22T21:38:44.224Z,-3.63
2019-01-22T21:41:09.983Z,-3.65
2019-01-22T21:43:35.754Z,-3.67
2019-01-22T21:46:01.509Z,-3.68
2019-01-22T21:48:27.339Z,-3.69
2019-01-22T21:50:53.138Z,-3.72
2019-01-22T21:53:18.970Z,-3.75
2019-01-22T21:55:44.747Z,-3.74
2019-01-22T21:58:10.587Z,-3.75
2019-01-22T22:00:36.357Z,-3.78
2019-01-22T22:03:02.393Z,-3.77
2019-01-22T22:06:09.853Z,-3.82
2019-01-22T22:08:35.688Z,-3.83
2019-01-22T22:11:01.464Z,-3.85
2019-01-22T22:13:27.221Z,-3.88
2019-01-22T22:15:52.988Z,-3.89
2019-01-22T22:18:18.744Z,-3.91
2019-01-22T22:20:44.509Z,-3.93
2019-01-22T22:23:10.425Z,-3.92
2019-01-22T22:25:36.190Z,-3.93
2019-01-22T22:28:01.942Z,-3.90
2019-01-22T22:33:40.911Z,-4.00
2019-01-22T22:36:06.684Z,-4.02
2019-01-22T22:38:32.455Z,-4.02
2019-01-22T22:40:58.225Z,-4.04
2019-01-22T22:43:24.057Z,-4.03
2019-01-22T22:45:49.828Z,-4.04
2019-01-22T22:48:15.579Z,-4.04
2019-01-22T22:50:48.466Z,-4.11
2019-01-22T22:53:14.218Z,-4.09
2019-01-22T22:55:40.035Z,-4.10
2019-01-22T22:58:05.792Z,-4.10
2019-01-22T23:01:13.243Z,-4.12
2019-01-22T23:03:39.008Z,-4.14
2019-01-22T23:06:04.779Z,-4.19
2019-01-22T23:08:30.629Z,-4.18
2019-01-22T23:10:56.397Z,-4.22
2019-01-22T23:13:22.153Z,-4.26
2019-01-22T23:15:48.017Z,-4.24
2019-01-22T23:18:13.881Z,-4.27
2019-01-22T23:20:39.648Z,-4.26
2019-01-22T23:23:05.407Z,-4.26
2019-01-22T23:25:31.270Z,-4.29
2019-01-22T23:27:57.024Z,-4.31
2019-01-22T23:30:22.890Z,-4.34
2019-01-22T23:32:48.642Z,-4.35
2019-01-22T23:35:14.493Z,-4.35
2019-01-22T23:37:40.278Z,-4.37
2019-01-22T23:40:47.728Z,-4.39
2019-01-22T23:43:13.484Z,-4.41
2019-01-22T23:45:39.262Z,-4.43
2019-01-22T23:48:05.017Z,-4.46
2019-01-22T23:50:30.770Z,-4.42
2019-01-22T23:52:56.539Z,-4.47
2019-01-22T23:55:22.292Z,-4.49
2019-01-22T23:57:48.101Z,-4.55
